sensor_id;sensor_type;location;lat;lon;timestamp;pressure;altitude;pressure_sealevel;temperature
75431;BMP280;64127;51.488;5.462;2023-03-25T00:02:10;100051.50;;;12.08
75431;BMP280;64127;51.488;5.462;2023-03-25T00:04:42;100055.03;;;12.10
75431;BMP280;64127;51.488;5.462;2023-03-25T00:07:15;100035.69;;;12.06
75431;BMP280;64127;51.488;5.462;2023-03-25T00:09:49;100048.03;;;12.10
75431;BMP280;64127;51.488;5.462;2023-03-25T00:12:21;100055.13;;;12.14
75431;BMP280;64127;51.488;5.462;2023-03-25T00:14:53;100052.41;;;12.10
75431;BMP280;64127;51.488;5.462;2023-03-25T00:17:26;100052.41;;;12.10
75431;BMP280;64127;51.488;5.462;2023-03-25T00:19:59;100043.56;;;12.05
75431;BMP280;64127;51.488;5.462;2023-03-25T00:22:33;100045.25;;;12.03
75431;BMP280;64127;51.488;5.462;2023-03-25T00:25:14;100046.06;;;12.00
75431;BMP280;64127;51.488;5.462;2023-03-25T00:27:50;100040.78;;;11.99
75431;BMP280;64127;51.488;5.462;2023-03-25T00:30:22;100039.94;;;12.00
75431;BMP280;64127;51.488;5.462;2023-03-25T00:32:54;100031.09;;;11.95
75431;BMP280;64127;51.488;5.462;2023-03-25T00:35:28;100042.50;;;11.97
75431;BMP280;64127;51.488;5.462;2023-03-25T00:38:00;100045.13;;;11.97
75431;BMP280;64127;51.488;5.462;2023-03-25T00:40:33;100036.34;;;11.95
75431;BMP280;64127;51.488;5.462;2023-03-25T00:43:06;100041.59;;;11.96
75431;BMP280;64127;51.488;5.462;2023-03-25T00:45:38;100043.34;;;11.96
75431;BMP280;64127;51.488;5.462;2023-03-25T00:48:10;100016.94;;;11.90
75431;BMP280;64127;51.488;5.462;2023-03-25T00:50:42;100037.19;;;11.95
75431;BMP280;64127;51.488;5.462;2023-03-25T00:53:14;100025.84;;;11.95
75431;BMP280;64127;51.488;5.462;2023-03-25T00:55:46;100030.19;;;11.94
75431;BMP280;64127;51.488;5.462;2023-03-25T00:58:18;100032.78;;;11.93
75431;BMP280;64127;51.488;5.462;2023-03-25T01:00:50;100035.38;;;11.91
75431;BMP280;64127;51.488;5.462;2023-03-25T01:03:23;100037.06;;;11.88
75431;BMP280;64127;51.488;5.462;2023-03-25T01:05:56;100034.38;;;11.86
75431;BMP280;64127;51.488;5.462;2023-03-25T01:08:28;100030.06;;;11.88
75431;BMP280;64127;51.488;5.462;2023-03-25T01:11:03;100029.25;;;11.91
75431;BMP280;64127;51.488;5.462;2023-03-25T01:13:35;100036.25;;;11.92
75431;BMP280;64127;51.488;5.462;2023-03-25T01:16:07;100026.63;;;11.91
75431;BMP280;64127;51.488;5.462;2023-03-25T01:18:39;100039.69;;;11.88
75431;BMP280;64127;51.488;5.462;2023-03-25T01:21:12;100038.72;;;11.86
75431;BMP280;64127;51.488;5.462;2023-03-25T01:23:44;100019.41;;;11.82
75431;BMP280;64127;51.488;5.462;2023-03-25T01:26:17;100026.38;;;11.80
75431;BMP280;64127;51.488;5.462;2023-03-25T01:28:49;100036.94;;;11.83
75431;BMP280;64127;51.488;5.462;2023-03-25T01:31:21;100033.34;;;11.80
75431;BMP280;64127;51.488;5.462;2023-03-25T01:34:01;100045.59;;;11.79
75431;BMP280;64127;51.488;5.462;2023-03-25T01:36:34;100023.56;;;11.71
75431;BMP280;64127;51.488;5.462;2023-03-25T01:39:09;100033.16;;;11.71
75431;BMP280;64127;51.488;5.462;2023-03-25T01:41:42;100034.78;;;11.67
75431;BMP280;64127;51.488;5.462;2023-03-25T01:46:58;100041.78;;;11.66
75431;BMP280;64127;51.488;5.462;2023-03-25T01:49:36;100036.59;;;11.69
75431;BMP280;64127;51.488;5.462;2023-03-25T01:52:23;100032.06;;;11.62
75431;BMP280;64127;51.488;5.462;2023-03-25T01:54:57;100027.69;;;11.63
75431;BMP280;64127;51.488;5.462;2023-03-25T01:57:29;100024.25;;;11.65
75431;BMP280;64127;51.488;5.462;2023-03-25T02:00:03;100028.66;;;11.66
75431;BMP280;64127;51.488;5.462;2023-03-25T02:02:41;100026.03;;;11.68
75431;BMP280;64127;51.488;5.462;2023-03-25T02:08:11;100019.94;;;11.67
75431;BMP280;64127;51.488;5.462;2023-03-25T02:10:47;100024.28;;;11.67
75431;BMP280;64127;51.488;5.462;2023-03-25T02:13:20;100025.97;;;11.65
75431;BMP280;64127;51.488;5.462;2023-03-25T02:44:39;100020.28;;;11.45
75431;BMP280;64127;51.488;5.462;2023-03-25T02:47:18;100016.75;;;11.45
75431;BMP280;64127;51.488;5.462;2023-03-25T02:50:20;100018.47;;;11.43
75431;BMP280;64127;51.488;5.462;2023-03-25T02:52:59;100017.63;;;11.44
75431;BMP280;64127;51.488;5.462;2023-03-25T02:55:33;100008.88;;;11.43
75431;BMP280;64127;51.488;5.462;2023-03-25T02:58:12;100000.13;;;11.43
75431;BMP280;64127;51.488;5.462;2023-03-25T03:00:49;100009.66;;;11.41
75431;BMP280;64127;51.488;5.462;2023-03-25T03:03:23;100007.88;;;11.38
75431;BMP280;64127;51.488;5.462;2023-03-25T03:05:59;100003.47;;;11.37
75431;BMP280;64127;51.488;5.462;2023-03-25T03:11:30;99999.03;;;11.35
75431;BMP280;64127;51.488;5.462;2023-03-25T03:18:01;99998.75;;;11.23
75431;BMP280;64127;51.488;5.462;2023-03-25T03:20:54;99993.59;;;11.26
75431;BMP280;64127;51.488;5.462;2023-03-25T03:23:50;99967.94;;;11.14
75431;BMP280;64127;51.488;5.462;2023-03-25T03:26:57;99998.00;;;11.28
75431;BMP280;64127;51.488;5.462;2023-03-25T03:29:38;99999.88;;;11.32
75431;BMP280;64127;51.488;5.462;2023-03-25T03:35:01;99997.94;;;11.25
75431;BMP280;64127;51.488;5.462;2023-03-25T03:37:40;99994.41;;;11.23
75431;BMP280;64127;51.488;5.462;2023-03-25T03:40:18;100002.41;;;11.29
75431;BMP280;64127;51.488;5.462;2023-03-25T03:43:07;99981.94;;;11.14
75431;BMP280;64127;51.488;5.462;2023-03-25T03:45:50;100001.53;;;11.29
75431;BMP280;64127;51.488;5.462;2023-03-25T03:48:41;100005.94;;;11.30
75431;BMP280;64127;51.488;5.462;2023-03-25T03:54:06;99994.63;;;11.32
75431;BMP280;64127;51.488;5.462;2023-03-25T03:57:10;99994.53;;;11.29
75431;BMP280;64127;51.488;5.462;2023-03-25T04:02:50;100006.72;;;11.27
75431;BMP280;64127;51.488;5.462;2023-03-25T04:05:27;100018.09;;;11.28
75431;BMP280;64127;51.488;5.462;2023-03-25T04:08:14;100016.34;;;11.27
75431;BMP280;64127;51.488;5.462;2023-03-25T04:10:58;100005.75;;;11.24
75431;BMP280;64127;51.488;5.462;2023-03-25T04:13:38;100007.59;;;11.26
75431;BMP280;64127;51.488;5.462;2023-03-25T04:16:11;100009.25;;;11.24
75431;BMP280;64127;51.488;5.462;2023-03-25T04:18:43;100001.47;;;11.27
75431;BMP280;64127;51.488;5.462;2023-03-25T04:21:20;99998.78;;;11.24
75431;BMP280;64127;51.488;5.462;2023-03-25T04:23:52;100008.34;;;11.22
75431;BMP280;64127;51.488;5.462;2023-03-25T04:26:24;100010.03;;;11.18
75431;BMP280;64127;51.488;5.462;2023-03-25T04:28:56;99999.47;;;11.17
75431;BMP280;64127;51.488;5.462;2023-03-25T04:31:32;100013.53;;;11.19
75431;BMP280;64127;51.488;5.462;2023-03-25T04:34:04;100002.97;;;11.16
75431;BMP280;64127;51.488;5.462;2023-03-25T04:36:36;100004.72;;;11.17
75431;BMP280;64127;51.488;5.462;2023-03-25T04:39:09;99999.41;;;11.14
75431;BMP280;64127;51.488;5.462;2023-03-25T04:41:44;100004.72;;;11.17
75431;BMP280;64127;51.488;5.462;2023-03-25T04:44:16;100007.31;;;11.15
75431;BMP280;64127;51.488;5.462;2023-03-25T04:46:48;100013.47;;;11.17
75431;BMP280;64127;51.488;5.462;2023-03-25T04:49:21;99959.56;;;10.93
75431;BMP280;64127;51.488;5.462;2023-03-25T04:51:54;100011.47;;;11.07
75431;BMP280;64127;51.488;5.462;2023-03-25T04:54:27;100004.38;;;11.02
75431;BMP280;64127;51.488;5.462;2023-03-25T04:56:59;100002.59;;;11.01
75431;BMP280;64127;51.488;5.462;2023-03-25T04:59:32;99996.44;;;11.00
75431;BMP280;64127;51.488;5.462;2023-03-25T05:02:05;100002.59;;;11.01
75431;BMP280;64127;51.488;5.462;2023-03-25T05:04:39;100013.06;;;11.01
75431;BMP280;64127;51.488;5.462;2023-03-25T05:07:18;99990.31;;;11.00
75431;BMP280;64127;51.488;5.462;2023-03-25T05:09:50;100000.78;;;11.00
75431;BMP280;64127;51.488;5.462;2023-03-25T05:12:22;99991.13;;;10.96
75431;BMP280;64127;51.488;5.462;2023-03-25T05:14:54;99993.94;;;11.05
75431;BMP280;64127;51.488;5.462;2023-03-25T05:17:26;99990.16;;;10.94
75431;BMP280;64127;51.488;5.462;2023-03-25T05:20:00;99998.97;;;10.96
75431;BMP280;64127;51.488;5.462;2023-03-25T05:22:33;100004.28;;;10.99
75431;BMP280;64127;51.488;5.462;2023-03-25T05:25:07;100007.69;;;10.95
75431;BMP280;64127;51.488;5.462;2023-03-25T05:27:40;100021.75;;;10.98
75431;BMP280;64127;51.488;5.462;2023-03-25T05:30:12;100009.53;;;11.35
75431;BMP280;64127;51.488;5.462;2023-03-25T05:32:45;100016.69;;;11.06
75431;BMP280;64127;51.488;5.462;2023-03-25T05:35:27;100022.66;;;11.00
75431;BMP280;64127;51.488;5.462;2023-03-25T05:37:59;100025.25;;;10.99
75431;BMP280;64127;51.488;5.462;2023-03-25T05:40:33;100024.47;;;11.03
75431;BMP280;64127;51.488;5.462;2023-03-25T05:43:05;100041.97;;;11.04
75431;BMP280;64127;51.488;5.462;2023-03-25T05:45:37;100024.47;;;11.03
75431;BMP280;64127;51.488;5.462;2023-03-25T05:48:10;100023.63;;;11.04
75431;BMP280;64127;51.488;5.462;2023-03-25T05:50:42;100020.19;;;11.06
75431;BMP280;64127;51.488;5.462;2023-03-25T05:53:14;100030.72;;;11.08
75431;BMP280;64127;51.488;5.462;2023-03-25T05:55:47;100028.06;;;11.06
75431;BMP280;64127;51.488;5.462;2023-03-25T05:58:23;100021.78;;;11.00
75431;BMP280;64127;51.488;5.462;2023-03-25T06:00:55;100031.41;;;11.01
75431;BMP280;64127;51.488;5.462;2023-03-25T06:03:28;100029.72;;;11.03
75431;BMP280;64127;51.488;5.462;2023-03-25T06:06:00;100035.91;;;11.05
75431;BMP280;64127;51.488;5.462;2023-03-25T06:08:32;100044.81;;;11.13
75431;BMP280;64127;51.488;5.462;2023-03-25T06:11:08;100045.63;;;11.10
75431;BMP280;64127;51.488;5.462;2023-03-25T06:13:41;100038.75;;;11.14
75431;BMP280;64127;51.488;5.462;2023-03-25T06:16:24;100037.50;;;11.00
75431;BMP280;64127;51.488;5.462;2023-03-25T06:19:01;100038.47;;;11.03
75431;BMP280;64127;51.488;5.462;2023-03-25T06:21:33;100041.97;;;11.04
75431;BMP280;64127;51.488;5.462;2023-03-25T06:24:06;100039.28;;;11.01
75431;BMP280;64127;51.488;5.462;2023-03-25T06:26:38;100048.94;;;11.03
75431;BMP280;64127;51.488;5.462;2023-03-25T06:29:10;100042.75;;;11.00
75431;BMP280;64127;51.488;5.462;2023-03-25T06:31:42;100054.25;;;11.05
75431;BMP280;64127;51.488;5.462;2023-03-25T06:34:14;100047.22;;;11.04
75431;BMP280;64127;51.488;5.462;2023-03-25T06:36:46;100038.53;;;11.05
75431;BMP280;64127;51.488;5.462;2023-03-25T06:39:20;100044.69;;;11.07
75431;BMP280;64127;51.488;5.462;2023-03-25T06:41:52;100043.06;;;11.12
75431;BMP280;64127;51.488;5.462;2023-03-25T06:44:25;100057.16;;;11.17
75431;BMP280;64127;51.488;5.462;2023-03-25T06:46:57;100054.53;;;11.15
75431;BMP280;64127;51.488;5.462;2023-03-25T06:49:29;100041.22;;;11.08
75431;BMP280;64127;51.488;5.462;2023-03-25T06:52:01;100061.66;;;11.21
75431;BMP280;64127;51.488;5.462;2023-03-25T06:54:33;100060.88;;;11.25
75431;BMP280;64127;51.488;5.462;2023-03-25T06:57:05;100068.81;;;11.28
75431;BMP280;64127;51.488;5.462;2023-03-25T06:59:38;100077.53;;;11.27
75431;BMP280;64127;51.488;5.462;2023-03-25T07:02:12;100070.53;;;11.26
75431;BMP280;64127;51.488;5.462;2023-03-25T07:04:44;100073.16;;;11.26
75431;BMP280;64127;51.488;5.462;2023-03-25T07:07:16;100050.47;;;11.28
75431;BMP280;64127;51.488;5.462;2023-03-25T07:09:52;100055.69;;;11.27
75431;BMP280;64127;51.488;5.462;2023-03-25T07:12:25;100071.38;;;11.25
75431;BMP280;64127;51.488;5.462;2023-03-25T07:14:57;100053.00;;;11.25
75431;BMP280;64127;51.488;5.462;2023-03-25T07:17:30;100059.16;;;11.27
75431;BMP280;64127;51.488;5.462;2023-03-25T07:20:07;100063.69;;;11.33
75431;BMP280;64127;51.488;5.462;2023-03-25T07:22:42;100065.56;;;11.38
75431;BMP280;64127;51.488;5.462;2023-03-25T07:25:14;100057.84;;;11.44
75431;BMP280;64127;51.488;5.462;2023-03-25T07:27:47;100029.41;;;11.25
75431;BMP280;64127;51.488;5.462;2023-03-25T07:30:19;100071.03;;;11.47
75431;BMP280;64127;51.488;5.462;2023-03-25T07:32:51;100069.34;;;11.49
75431;BMP280;64127;51.488;5.462;2023-03-25T07:35:23;100063.91;;;11.40
75431;BMP280;64127;51.488;5.462;2023-03-25T07:37:55;100090.06;;;11.39
75431;BMP280;64127;51.488;5.462;2023-03-25T07:40:27;100094.28;;;11.32
75431;BMP280;64127;51.488;5.462;2023-03-25T07:42:59;100083.66;;;11.26
75431;BMP280;64127;51.488;5.462;2023-03-25T07:45:31;100082.69;;;11.24
75431;BMP280;64127;51.488;5.462;2023-03-25T07:48:23;100075.56;;;11.18
75431;BMP280;64127;51.488;5.462;2023-03-25T07:50:55;100082.69;;;11.23
75431;BMP280;64127;51.488;5.462;2023-03-25T07:53:27;100097.59;;;11.25
75431;BMP280;64127;51.488;5.462;2023-03-25T07:55:59;100111.47;;;11.21
75431;BMP280;64127;51.488;5.462;2023-03-25T07:58:31;100093.81;;;11.14
75431;BMP280;64127;51.488;5.462;2023-03-25T08:01:04;100100.91;;;11.18
75431;BMP280;64127;51.488;5.462;2023-03-25T08:03:36;100093.03;;;11.18
75431;BMP280;64127;51.488;5.462;2023-03-25T08:06:11;100094.06;;;11.23
75431;BMP280;64127;51.488;5.462;2023-03-25T08:08:43;100094.97;;;11.25
75431;BMP280;64127;51.488;5.462;2023-03-25T08:11:15;100111.69;;;11.30
75431;BMP280;64127;51.488;5.462;2023-03-25T08:13:47;100098.97;;;11.45
75431;BMP280;64127;51.488;5.462;2023-03-25T08:16:19;100090.69;;;11.63
75431;BMP280;64127;51.488;5.462;2023-03-25T08:18:51;100114.66;;;11.77
75431;BMP280;64127;51.488;5.462;2023-03-25T08:21:23;100126.00;;;11.76
75431;BMP280;64127;51.488;5.462;2023-03-25T08:23:56;100124.75;;;11.61
75431;BMP280;64127;51.488;5.462;2023-03-25T08:26:35;100119.22;;;11.49
75431;BMP280;64127;51.488;5.462;2023-03-25T08:29:08;100117.06;;;11.33
75431;BMP280;64127;51.488;5.462;2023-03-25T08:31:40;100129.16;;;11.28
75431;BMP280;64127;51.488;5.462;2023-03-25T08:34:13;100130.94;;;11.29
75431;BMP280;64127;51.488;5.462;2023-03-25T08:36:45;100132.59;;;11.27
75431;BMP280;64127;51.488;5.462;2023-03-25T08:39:17;100138.03;;;11.33
75431;BMP280;64127;51.488;5.462;2023-03-25T08:41:49;100149.31;;;11.31
75431;BMP280;64127;51.488;5.462;2023-03-25T08:44:21;100144.84;;;11.27
75431;BMP280;64127;51.488;5.462;2023-03-25T08:46:53;100143.16;;;11.30
75431;BMP280;64127;51.488;5.462;2023-03-25T08:49:25;100139.78;;;11.34
75431;BMP280;64127;51.488;5.462;2023-03-25T08:51:58;100146.19;;;11.44
75431;BMP280;64127;51.488;5.462;2023-03-25T08:54:32;100139.97;;;11.40
75431;BMP280;64127;51.488;5.462;2023-03-25T08:57:04;100144.47;;;11.46
75431;BMP280;64127;51.488;5.462;2023-03-25T08:59:36;100143.09;;;11.60
75431;BMP280;64127;51.488;5.462;2023-03-25T09:02:11;100153.97;;;11.75
75431;BMP280;64127;51.488;5.462;2023-03-25T09:04:43;100135.81;;;11.83
75431;BMP280;64127;51.488;5.462;2023-03-25T09:07:15;100136.84;;;11.89
75431;BMP280;64127;51.488;5.462;2023-03-25T09:09:50;100146.63;;;11.95
75431;BMP280;64127;51.488;5.462;2023-03-25T09:12:22;100122.09;;;11.94
75431;BMP280;64127;51.488;5.462;2023-03-25T09:14:54;100139.66;;;11.97
75431;BMP280;64127;51.488;5.462;2023-03-25T09:17:26;100131.31;;;12.16
75431;BMP280;64127;51.488;5.462;2023-03-25T09:19:58;100139.63;;;12.33
75431;BMP280;64127;51.488;5.462;2023-03-25T09:22:30;100130.91;;;12.35
75431;BMP280;64127;51.488;5.462;2023-03-25T09:25:04;100130.44;;;12.54
75431;BMP280;64127;51.488;5.462;2023-03-25T09:27:37;100136.84;;;12.68
75431;BMP280;64127;51.488;5.462;2023-03-25T09:30:10;100135.50;;;12.89
75431;BMP280;64127;51.488;5.462;2023-03-25T09:32:42;100132.88;;;12.89
75431;BMP280;64127;51.488;5.462;2023-03-25T09:35:15;100138.69;;;12.73
75431;BMP280;64127;51.488;5.462;2023-03-25T09:37:47;100149.88;;;12.62
75431;BMP280;64127;51.488;5.462;2023-03-25T09:40:23;100142.81;;;12.60
75431;BMP280;64127;51.488;5.462;2023-03-25T09:43:22;100149.50;;;12.86
75431;BMP280;64127;51.488;5.462;2023-03-25T09:45:55;100126.16;;;13.03
75431;BMP280;64127;51.488;5.462;2023-03-25T09:48:40;100163.53;;;13.30
75431;BMP280;64127;51.488;5.462;2023-03-25T09:51:23;100134.63;;;13.33
75431;BMP280;64127;51.488;5.462;2023-03-25T09:54:01;100166.16;;;13.29
75431;BMP280;64127;51.488;5.462;2023-03-25T09:56:37;100155.38;;;13.15
75431;BMP280;64127;51.488;5.462;2023-03-25T09:59:21;100144.28;;;12.89
75431;BMP280;64127;51.488;5.462;2023-03-25T10:11:08;100157.22;;;13.68
75431;BMP280;64127;51.488;5.462;2023-03-25T10:19:44;100141.25;;;14.15
75431;BMP280;64127;51.488;5.462;2023-03-25T10:22:53;100147.28;;;14.08
75431;BMP280;64127;51.488;5.462;2023-03-25T10:25:32;100135.84;;;14.06
75431;BMP280;64127;51.488;5.462;2023-03-25T10:28:16;100147.47;;;14.17
75431;BMP280;64127;51.488;5.462;2023-03-25T10:30:51;100141.50;;;14.32
75431;BMP280;64127;51.488;5.462;2023-03-25T10:33:38;100120.50;;;14.36
75431;BMP280;64127;51.488;5.462;2023-03-25T10:36:17;100129.53;;;14.52
75431;BMP280;64127;51.488;5.462;2023-03-25T10:38:52;100145.44;;;14.59
75431;BMP280;64127;51.488;5.462;2023-03-25T10:41:32;100134.91;;;14.61
75431;BMP280;64127;51.488;5.462;2023-03-25T10:44:10;100127.94;;;14.66
75431;BMP280;64127;51.488;5.462;2023-03-25T10:47:20;100136.09;;;14.86
75431;BMP280;64127;51.488;5.462;2023-03-25T10:49:54;100149.34;;;14.90
75431;BMP280;64127;51.488;5.462;2023-03-25T10:52:27;100122.03;;;14.87
75431;BMP280;64127;51.488;5.462;2023-03-25T10:54:59;100137.16;;;15.00
75431;BMP280;64127;51.488;5.462;2023-03-25T10:57:31;100153.69;;;14.87
75431;BMP280;64127;51.488;5.462;2023-03-25T11:00:13;100143.22;;;14.93
75431;BMP280;64127;51.488;5.462;2023-03-25T11:02:53;100127.50;;;15.02
75431;BMP280;64127;51.488;5.462;2023-03-25T11:05:27;100141.66;;;15.10
75431;BMP280;64127;51.488;5.462;2023-03-25T11:08:00;100119.66;;;15.11
75431;BMP280;64127;51.488;5.462;2023-03-25T11:10:53;100154.78;;;15.04
75431;BMP280;64127;51.488;5.462;2023-03-25T11:13:33;100137.97;;;14.93
75431;BMP280;64127;51.488;5.462;2023-03-25T11:16:06;100137.00;;;14.86
75431;BMP280;64127;51.488;5.462;2023-03-25T11:18:39;100147.56;;;14.86
75431;BMP280;64127;51.488;5.462;2023-03-25T11:21:12;100136.88;;;14.76
75431;BMP280;64127;51.488;5.462;2023-03-25T11:23:50;100157.84;;;14.65
75431;BMP280;64127;51.488;5.462;2023-03-25T11:26:37;100160.31;;;14.56
75431;BMP280;64127;51.488;5.462;2023-03-25T11:29:16;100160.31;;;14.56
75431;BMP280;64127;51.488;5.462;2023-03-25T11:32:13;100158.56;;;14.55
75431;BMP280;64127;51.488;5.462;2023-03-25T11:34:49;100156.91;;;14.61
75431;BMP280;64127;51.488;5.462;2023-03-25T11:37:23;100158.63;;;14.58
75431;BMP280;64127;51.488;5.462;2023-03-25T11:40:08;100147.06;;;14.50
75431;BMP280;64127;51.488;5.462;2023-03-25T11:42:45;100148.72;;;14.43
75431;BMP280;64127;51.488;5.462;2023-03-25T11:45:35;100144.97;;;14.29
75431;BMP280;64127;51.488;5.462;2023-03-25T11:48:19;100159.00;;;14.28
75431;BMP280;64127;51.488;5.462;2023-03-25T11:51:00;100156.34;;;14.25
75431;BMP280;64127;51.488;5.462;2023-03-25T11:53:32;100175.63;;;14.21
75431;BMP280;64127;51.488;5.462;2023-03-25T11:56:15;100164.88;;;14.09
75431;BMP280;64127;51.488;5.462;2023-03-25T11:58:49;100170.06;;;14.03
75431;BMP280;64127;51.488;5.462;2023-03-25T12:01:46;100175.06;;;13.88
75431;BMP280;64127;51.488;5.462;2023-03-25T12:04:23;100160.16;;;13.88
75431;BMP280;64127;51.488;5.462;2023-03-25T12:09:30;100162.00;;;13.92
75431;BMP280;64127;51.488;5.462;2023-03-25T12:12:42;100173.69;;;14.11
75431;BMP280;64127;51.488;5.462;2023-03-25T12:15:38;100149.28;;;14.21
75431;BMP280;64127;51.488;5.462;2023-03-25T12:18:40;100179.16;;;14.23
75431;BMP280;64127;51.488;5.462;2023-03-25T12:30:45;100176.63;;;14.29
75431;BMP280;64127;51.488;5.462;2023-03-25T12:54:56;100182.44;;;14.07
75431;BMP280;64127;51.488;5.462;2023-03-25T12:57:43;100179.72;;;14.02
75431;BMP280;64127;51.488;5.462;2023-03-25T13:07:04;100191.75;;;13.37
75431;BMP280;64127;51.488;5.462;2023-03-25T13:10:17;100200.81;;;13.53
75431;BMP280;64127;51.488;5.462;2023-03-25T13:12:59;100186.97;;;13.64
75431;BMP280;64127;51.488;5.462;2023-03-25T13:15:46;100198.72;;;13.83
75431;BMP280;64127;51.488;5.462;2023-03-25T13:18:32;100197.94;;;13.89
75431;BMP280;64127;51.488;5.462;2023-03-25T13:21:42;100188.19;;;13.83
75431;BMP280;64127;51.488;5.462;2023-03-25T13:24:22;100193.78;;;14.04
75431;BMP280;64127;51.488;5.462;2023-03-25T13:26:56;100180.09;;;14.28
75431;BMP280;64127;51.488;5.462;2023-03-25T13:29:40;100172.19;;;14.28
75431;BMP280;64127;51.488;5.462;2023-03-25T13:32:28;100170.41;;;14.24
75431;BMP280;64127;51.488;5.462;2023-03-25T13:35:19;100185.13;;;14.11
75431;BMP280;64127;51.488;5.462;2023-03-25T13:38:00;100174.31;;;13.95
75431;BMP280;64127;51.488;5.462;2023-03-25T13:44:26;100183.78;;;13.84
75431;BMP280;64127;51.488;5.462;2023-03-25T13:49:52;100202.88;;;13.70
75431;BMP280;64127;51.488;5.462;2023-03-25T13:52:34;100195.91;;;13.73
75431;BMP280;64127;51.488;5.462;2023-03-25T13:55:34;100201.28;;;13.79
75431;BMP280;64127;51.488;5.462;2023-03-25T13:58:41;100203.09;;;13.83
75431;BMP280;64127;51.488;5.462;2023-03-25T14:13:05;100163.63;;;14.38
75431;BMP280;64127;51.488;5.462;2023-03-25T14:15:50;100193.09;;;14.71
75431;BMP280;64127;51.488;5.462;2023-03-25T14:18:24;100190.63;;;14.87
75431;BMP280;64127;51.488;5.462;2023-03-25T14:21:12;100191.69;;;14.99
75431;BMP280;64127;51.488;5.462;2023-03-25T14:23:47;100185.66;;;15.11
75431;BMP280;64127;51.488;5.462;2023-03-25T14:26:19;100161.09;;;15.18
75431;BMP280;64127;51.488;5.462;2023-03-25T14:28:54;100180.69;;;15.38
75431;BMP280;64127;51.488;5.462;2023-03-25T14:31:31;100192.19;;;15.43
75431;BMP280;64127;51.488;5.462;2023-03-25T14:34:12;100188.78;;;15.52
75431;BMP280;64127;51.488;5.462;2023-03-25T14:44:43;100197.69;;;15.61
75431;BMP280;64127;51.488;5.462;2023-03-25T14:47:33;100211.78;;;15.62
75431;BMP280;64127;51.488;5.462;2023-03-25T14:53:00;100189.91;;;15.77
75431;BMP280;64127;51.488;5.462;2023-03-25T14:55:46;100198.75;;;15.79
75431;BMP280;64127;51.488;5.462;2023-03-25T14:58:26;100198.78;;;15.82
75431;BMP280;64127;51.488;5.462;2023-03-25T15:01:11;100161.56;;;15.60
75431;BMP280;64127;51.488;5.462;2023-03-25T15:03:45;100179.38;;;15.83
75431;BMP280;64127;51.488;5.462;2023-03-25T15:06:32;100201.38;;;15.80
75431;BMP280;64127;51.488;5.462;2023-03-25T15:09:08;100196.03;;;15.76
75431;BMP280;64127;51.488;5.462;2023-03-25T15:14:37;100196.94;;;15.75
75431;BMP280;64127;51.488;5.462;2023-03-25T15:17:46;100210.03;;;15.64
75431;BMP280;64127;51.488;5.462;2023-03-25T15:23:29;100216.13;;;15.58
75431;BMP280;64127;51.488;5.462;2023-03-25T15:26:12;100209.09;;;15.57
75431;BMP280;64127;51.488;5.462;2023-03-25T15:53:18;100226.22;;;15.16
75431;BMP280;64127;51.488;5.462;2023-03-25T15:56:26;100240.25;;;15.15
75431;BMP280;64127;51.488;5.462;2023-03-25T15:59:36;100228.69;;;15.02
75431;BMP280;64127;51.488;5.462;2023-03-25T16:02:41;100230.47;;;15.03
75431;BMP280;64127;51.488;5.462;2023-03-25T16:05:18;100236.59;;;15.04
75431;BMP280;64127;51.488;5.462;2023-03-25T16:07:51;100250.75;;;15.09
75431;BMP280;64127;51.488;5.462;2023-03-25T16:10:32;100218.09;;;14.99
75431;BMP280;64127;51.488;5.462;2023-03-25T16:13:14;100237.41;;;14.98
75431;BMP280;64127;51.488;5.462;2023-03-25T16:15:56;100262.06;;;14.99
75431;BMP280;64127;51.488;5.462;2023-03-25T16:18:29;100276.97;;;14.97
75431;BMP280;64127;51.488;5.462;2023-03-25T16:21:02;100265.47;;;14.93
75431;BMP280;64127;51.488;5.462;2023-03-25T16:23:35;100281.34;;;14.95
75431;BMP280;64127;51.488;5.462;2023-03-25T16:26:12;100262.75;;;14.86
75431;BMP280;64127;51.488;5.462;2023-03-25T16:28:46;100284.75;;;14.86
75431;BMP280;64127;51.488;5.462;2023-03-25T16:31:32;100280.25;;;14.81
75431;BMP280;64127;51.488;5.462;2023-03-25T16:34:14;100275.84;;;14.80
75431;BMP280;64127;51.488;5.462;2023-03-25T16:36:50;100280.25;;;14.81
75431;BMP280;64127;51.488;5.462;2023-03-25T16:39:23;100288.19;;;14.81
75431;BMP280;64127;51.488;5.462;2023-03-25T16:42:06;100281.13;;;14.80
75431;BMP280;64127;51.488;5.462;2023-03-25T16:44:45;100292.56;;;14.80
75431;BMP280;64127;51.488;5.462;2023-03-25T16:47:19;100304.88;;;14.80
75431;BMP280;64127;51.488;5.462;2023-03-25T16:49:54;100300.44;;;14.76
75431;BMP280;64127;51.488;5.462;2023-03-25T16:52:32;100304.78;;;14.72
75431;BMP280;64127;51.488;5.462;2023-03-25T16:55:25;100308.22;;;14.69
75431;BMP280;64127;51.488;5.462;2023-03-25T16:58:01;100304.75;;;14.70
75431;BMP280;64127;51.488;5.462;2023-03-25T17:00:39;100301.16;;;14.65
75431;BMP280;64127;51.488;5.462;2023-03-25T17:03:38;100308.94;;;14.58
75431;BMP280;64127;51.488;5.462;2023-03-25T17:06:31;100299.25;;;14.55
75431;BMP280;64127;51.488;5.462;2023-03-25T17:09:19;100310.66;;;14.56
75431;BMP280;64127;51.488;5.462;2023-03-25T17:11:55;100316.81;;;14.56
75431;BMP280;64127;51.488;5.462;2023-03-25T17:14:35;100300.09;;;14.54
75431;BMP280;64127;51.488;5.462;2023-03-25T17:17:35;100317.72;;;14.57
75431;BMP280;64127;51.488;5.462;2023-03-25T17:20:35;100315.84;;;14.50
75431;BMP280;64127;51.488;5.462;2023-03-25T17:26:17;100322.00;;;14.50
75431;BMP280;64127;51.488;5.462;2023-03-25T17:31:38;100329.09;;;14.54
75431;BMP280;64127;51.488;5.462;2023-03-25T17:34:23;100327.38;;;14.56
75431;BMP280;64127;51.488;5.462;2023-03-25T17:36:59;100337.03;;;14.54
75431;BMP280;64127;51.488;5.462;2023-03-25T17:39:34;100314.84;;;14.43
75431;BMP280;64127;51.488;5.462;2023-03-25T17:42:20;100335.91;;;14.42
75431;BMP280;64127;51.488;5.462;2023-03-25T17:44:53;100356.25;;;14.49
75431;BMP280;64127;51.488;5.462;2023-03-25T17:47:25;100356.19;;;14.44